Time;durP1;ratioP1;P1;durP2;ratioP2;P2;SDS_P1;SDS_P2;PMS_P1;PMS_P2;Temp;Humidity;BMP_temperature;BMP_pressure;BME280_temperature;BME280_humidity;BME280_pressure;Samples;Min_cycle;Max_cycle;Signal;HPM_P1;HPM_P2
2021/11/15 00:02:10;;;;;;;20.92;14.60;;;9.80;99.30;;;;;;5012631;28;20092;-61
2021/11/15 00:04:37;;;;;;;22.23;14.57;;;9.80;99.30;;;;;;5010544;28;20076;-61
2021/11/15 00:07:03;;;;;;;19.15;13.57;;;9.80;99.30;;;;;;5012669;28;20045;-62
2021/11/15 00:09:29;;;;;;;16.88;12.50;;;9.80;99.30;;;;;;5012237;28;20084;-61
2021/11/15 00:11:55;;;;;;;18.83;13.55;;;9.80;99.30;;;;;;5012768;28;20051;-61
2021/11/15 00:14:20;;;;;;;21.58;14.93;;;9.80;99.20;;;;;;5012624;28;20044;-61
2021/11/15 00:16:46;;;;;;;23.08;15.77;;;9.70;99.10;;;;;;4995177;28;20084;-61
2021/11/15 00:19:12;;;;;;;21.63;15.23;;;9.70;99.00;;;;;;5005282;28;20106;-61
2021/11/15 00:21:37;;;;;;;19.48;14.65;;;9.70;99.00;;;;;;5012463;28;20470;-61
2021/11/15 00:24:03;;;;;;;23.75;16.27;;;9.70;99.00;;;;;;5012509;28;20080;-61
2021/11/15 00:26:29;;;;;;;21.20;15.55;;;9.70;98.90;;;;;;5012039;28;20038;-61
2021/11/15 00:28:56;;;;;;;23.35;16.98;;;9.70;98.80;;;;;;5012394;28;20014;-61
2021/11/15 00:31:22;;;;;;;23.65;16.77;;;9.70;98.70;;;;;;5012490;28;20121;-61
2021/11/15 00:33:48;;;;;;;24.23;17.35;;;9.70;98.80;;;;;;5011914;28;20109;-61
2021/11/15 00:36:14;;;;;;;24.42;17.77;;;9.70;98.70;;;;;;5012201;28;20420;-62
2021/11/15 00:38:39;;;;;;;24.95;19.17;;;9.60;98.60;;;;;;5005553;28;20280;-61
2021/11/15 00:41:06;;;;;;;26.48;19.15;;;9.60;98.50;;;;;;5012193;28;20390;-62
2021/11/15 00:43:32;;;;;;;24.88;18.13;;;9.60;98.50;;;;;;5011994;28;20026;-61
2021/11/15 00:45:57;;;;;;;25.92;18.20;;;9.60;98.50;;;;;;5012220;28;20030;-61
2021/11/15 00:48:23;;;;;;;26.63;19.10;;;9.60;98.50;;;;;;5011579;28;20537;-61
2021/11/15 00:50:49;;;;;;;25.50;18.75;;;9.60;98.50;;;;;;5011603;28;20417;-61
2021/11/15 00:53:14;;;;;;;27.00;20.02;;;9.60;98.50;;;;;;5011444;28;20115;-61
2021/11/15 00:55:40;;;;;;;29.20;19.42;;;9.50;98.30;;;;;;5011347;28;20049;-61
2021/11/15 00:58:06;;;;;;;27.77;20.15;;;9.50;98.60;;;;;;5011086;28;20389;-61
2021/11/15 01:00:33;;;;;;;25.77;17.75;;;9.50;98.30;;;;;;5011147;28;20021;-61
2021/11/15 01:02:59;;;;;;;24.83;18.52;;;9.50;98.40;;;;;;4994165;28;20044;-61
2021/11/15 01:05:27;;;;;;;26.67;19.48;;;9.50;98.40;;;;;;5011360;28;20362;-61
2021/11/15 01:07:53;;;;;;;26.92;19.13;;;9.50;98.40;;;;;;4991334;28;20385;-61
2021/11/15 01:10:20;;;;;;;32.20;18.63;;;9.50;98.40;;;;;;5011606;28;20026;-61
2021/11/15 01:12:45;;;;;;;27.23;18.63;;;9.50;98.40;;;;;;5005507;28;20018;-61
2021/11/15 01:15:15;;;;;;;27.15;18.42;;;9.50;98.50;;;;;;4989644;28;20393;-61
2021/11/15 01:17:41;;;;;;;24.58;16.42;;;9.50;98.50;;;;;;5009831;28;20501;-61
2021/11/15 01:20:10;;;;;;;23.63;17.67;;;9.50;98.60;;;;;;5010882;28;20053;-61
2021/11/15 01:22:37;;;;;;;22.17;16.00;;;9.50;98.50;;;;;;5004645;28;20072;-61
2021/11/15 01:25:05;;;;;;;27.15;17.67;;;9.50;98.60;;;;;;5011360;28;20064;-61
2021/11/15 01:27:30;;;;;;;27.98;19.98;;;9.50;98.60;;;;;;4993332;28;20030;-61
2021/11/15 01:29:56;;;;;;;26.70;18.65;;;9.50;98.60;;;;;;5011528;28;20168;-61
2021/11/15 01:32:21;;;;;;;27.45;19.17;;;9.40;98.60;;;;;;4992258;28;20033;-61
2021/11/15 01:34:47;;;;;;;26.15;18.00;;;9.40;98.70;;;;;;5010553;28;20034;-61
2021/11/15 01:37:12;;;;;;;27.55;19.02;;;9.40;98.70;;;;;;5011194;28;20505;-61
2021/11/15 01:39:38;;;;;;;25.90;17.88;;;9.40;98.70;;;;;;5011106;28;20076;-61
2021/11/15 01:42:04;;;;;;;29.23;19.23;;;9.40;98.70;;;;;;5010820;28;20030;-61
2021/11/15 01:44:30;;;;;;;29.33;19.38;;;9.40;98.70;;;;;;5010713;28;20164;-61
2021/11/15 01:46:56;;;;;;;25.20;18.20;;;9.30;98.70;;;;;;5004114;28;20037;-61
2021/11/15 01:49:22;;;;;;;27.10;19.55;;;9.30;98.80;;;;;;4993353;28;20026;-61
2021/11/15 01:51:48;;;;;;;30.02;20.80;;;9.30;98.80;;;;;;5010597;28;20486;-61
2021/11/15 01:54:14;;;;;;;27.40;18.67;;;9.30;98.70;;;;;;4993127;28;20394;-61
2021/11/15 01:56:40;;;;;;;25.48;18.58;;;9.30;98.70;;;;;;5010783;28;20041;-61
2021/11/15 01:59:07;;;;;;;27.85;19.02;;;9.30;98.80;;;;;;5010895;28;20041;-61
2021/11/15 02:01:32;;;;;;;25.55;18.25;;;9.30;98.80;;;;;;4993403;28;20478;-61
2021/11/15 02:03:58;;;;;;;27.08;18.48;;;9.30;98.80;;;;;;4992969;28;20077;-61
2021/11/15 02:06:25;;;;;;;26.15;19.08;;;9.30;98.90;;;;;;5010604;28;20022;-61
2021/11/15 02:08:51;;;;;;;29.20;20.67;;;9.40;99.00;;;;;;4992580;28;20084;-61
2021/11/15 02:11:16;;;;;;;29.88;20.75;;;9.30;98.90;;;;;;5010654;28;20022;-61
2021/11/15 02:13:44;;;;;;;29.40;20.50;;;9.30;99.00;;;;;;4993107;28;20046;-61
2021/11/15 02:16:09;;;;;;;30.90;20.67;;;9.30;99.10;;;;;;5010454;28;20026;-61
2021/11/15 02:18:35;;;;;;;29.17;20.40;;;9.30;99.10;;;;;;5002516;28;20421;-61
2021/11/15 02:21:04;;;;;;;27.83;19.83;;;9.30;99.20;;;;;;5003596;28;20033;-61
2021/11/15 02:23:33;;;;;;;30.20;20.30;;;9.20;99.20;;;;;;5010117;28;20056;-61
2021/11/15 02:26:00;;;;;;;24.42;18.02;;;9.30;99.30;;;;;;5011925;28;20068;-61
2021/11/15 02:28:32;;;;;;;24.48;18.67;;;9.30;99.30;;;;;;5005484;28;20026;-61
2021/11/15 02:30:58;;;;;;;26.25;18.75;;;9.30;99.30;;;;;;5014674;28;20022;-61
2021/11/15 02:33:25;;;;;;;24.13;17.77;;;9.30;99.40;;;;;;5009979;28;20073;-61
2021/11/15 02:35:51;;;;;;;23.88;18.70;;;9.20;99.30;;;;;;4997093;28;20033;-61
2021/11/15 02:38:17;;;;;;;25.42;19.20;;;9.20;99.30;;;;;;4996867;28;20032;-61
2021/11/15 02:40:42;;;;;;;28.42;19.15;;;9.20;99.40;;;;;;5014508;28;20105;-61
2021/11/15 02:43:08;;;;;;;28.13;19.45;;;9.20;99.40;;;;;;5013818;28;20057;-61
2021/11/15 02:45:34;;;;;;;27.42;18.50;;;9.20;99.40;;;;;;5012919;28;20422;-61
2021/11/15 02:47:59;;;;;;;27.15;19.08;;;9.20;99.40;;;;;;5008062;28;20490;-61
2021/11/15 02:50:30;;;;;;;28.25;19.33;;;9.20;99.40;;;;;;4996338;28;20022;-61
2021/11/15 02:52:59;;;;;;;26.70;17.33;;;9.20;99.40;;;;;;5010034;28;20026;-61
2021/11/15 02:55:27;;;;;;;30.25;21.17;;;9.20;99.50;;;;;;4996551;28;20069;-61
2021/11/15 02:57:54;;;;;;;27.00;20.58;;;9.10;99.40;;;;;;5014245;28;20030;-62
2021/11/15 03:00:21;;;;;;;28.52;20.63;;;9.10;99.50;;;;;;5012364;28;20441;-61
2021/11/15 03:02:46;;;;;;;29.38;20.52;;;9.10;99.40;;;;;;5011533;28;20026;-61
2021/11/15 03:05:12;;;;;;;31.60;22.42;;;9.10;99.50;;;;;;5009540;28;20022;-61
2021/11/15 03:07:37;;;;;;;28.80;20.30;;;9.10;99.50;;;;;;5013207;28;20104;-61
2021/11/15 03:10:04;;;;;;;30.48;21.10;;;9.10;99.50;;;;;;4996419;28;20072;-61
2021/11/15 03:12:34;;;;;;;29.27;21.23;;;9.10;99.50;;;;;;5006655;28;20026;-61
2021/11/15 03:14:59;;;;;;;;;;;9.10;99.50;;;;;;5014115;28;20026;-61
2021/11/15 03:17:25;;;;;;;29.13;20.60;;;9.00;99.50;;;;;;5006828;28;19917;-61
2021/11/15 03:19:51;;;;;;;31.33;22.23;;;9.00;99.70;;;;;;5013380;28;20479;-61
2021/11/15 03:22:17;;;;;;;30.42;21.95;;;9.00;99.60;;;;;;5013577;28;20052;-61
2021/11/15 03:24:42;;;;;;;32.08;22.85;;;9.10;99.60;;;;;;5013795;28;20034;-62
2021/11/15 03:27:08;;;;;;;35.88;24.75;;;9.00;99.50;;;;;;5013356;28;20037;-61
2021/11/15 03:29:33;;;;;;;32.78;23.63;;;9.00;99.50;;;;;;5013772;28;20077;-61
2021/11/15 03:31:59;;;;;;;33.40;23.23;;;9.10;99.50;;;;;;5013599;28;20596;-61
2021/11/15 03:34:25;;;;;;;30.58;21.05;;;9.00;99.50;;;;;;5012318;28;20382;-61
2021/11/15 03:36:51;;;;;;;32.88;23.48;;;9.00;99.50;;;;;;5012461;28;20037;-61
2021/11/15 03:39:17;;;;;;;26.77;19.42;;;9.00;99.40;;;;;;5012699;28;20029;-61
2021/11/15 03:41:44;;;;;;;34.05;23.20;;;9.00;99.40;;;;;;4993499;28;20030;-61
2021/11/15 03:44:10;;;;;;;30.95;21.42;;;9.00;99.40;;;;;;5008131;28;20022;-61
2021/11/15 03:46:36;;;;;;;29.60;21.17;;;9.00;99.40;;;;;;4995790;28;20041;-61
2021/11/15 03:49:02;;;;;;;36.45;25.02;;;9.00;99.40;;;;;;5013480;28;20026;-61
2021/11/15 03:51:28;;;;;;;39.60;27.42;;;9.00;99.40;;;;;;4994741;28;20128;-61
2021/11/15 03:53:55;;;;;;;34.25;24.30;;;9.00;99.40;;;;;;5010538;28;20112;-61
2021/11/15 03:56:24;;;;;;;36.78;25.83;;;9.00;99.50;;;;;;5002013;28;20084;-61
2021/11/15 03:58:51;;;;;;;35.78;24.75;;;8.90;99.50;;;;;;5009743;28;20125;-61
2021/11/15 04:01:21;;;;;;;38.78;27.23;;;8.90;99.50;;;;;;5009454;28;20410;-61
2021/11/15 04:03:47;;;;;;;39.10;26.48;;;8.90;99.40;;;;;;5012823;28;20030;-61
2021/11/15 04:06:23;;;;;;;38.55;25.88;;;8.80;99.40;;;;;;5012549;28;20426;-61
2021/11/15 04:08:51;;;;;;;34.55;24.02;;;8.80;99.50;;;;;;5011974;28;20129;-61
2021/11/15 04:11:19;;;;;;;40.58;27.20;;;8.80;99.50;;;;;;5012757;28;20055;-61
2021/11/15 04:13:47;;;;;;;32.15;22.25;;;8.80;99.60;;;;;;4995131;28;20040;-61
2021/11/15 04:16:16;;;;;;;37.63;24.92;;;8.90;99.60;;;;;;5012438;28;20034;-61
2021/11/15 04:18:49;;;;;;;39.35;26.23;;;8.80;99.60;;;;;;5005890;28;20049;-61
2021/11/15 04:21:16;;;;;;;39.80;27.45;;;8.80;99.60;;;;;;5010367;28;20450;-61
2021/11/15 04:23:41;;;;;;;39.72;28.42;;;8.80;99.60;;;;;;5012239;28;20552;-61
2021/11/15 04:26:07;;;;;;;38.95;27.67;;;8.80;99.60;;;;;;4994861;28;20026;-61
2021/11/15 04:28:33;;;;;;;41.47;27.90;;;8.80;99.60;;;;;;5012202;28;20501;-61
2021/11/15 04:30:59;;;;;;;39.65;25.55;;;8.70;99.50;;;;;;5012446;28;20110;-61
2021/11/15 04:33:24;;;;;;;34.20;23.70;;;8.80;99.60;;;;;;5012459;28;20052;-61
2021/11/15 04:35:52;;;;;;;38.03;24.83;;;8.80;99.70;;;;;;5012021;28;20486;-61
2021/11/15 04:38:18;;;;;;;38.97;25.75;;;8.80;99.60;;;;;;5012263;28;20022;-61
2021/11/15 04:40:44;;;;;;;32.95;23.48;;;8.80;99.60;;;;;;5012086;28;20041;-61
2021/11/15 04:43:09;;;;;;;41.33;26.80;;;8.80;99.60;;;;;;5011788;28;20026;-61
2021/11/15 04:45:35;;;;;;;38.97;25.73;;;8.80;99.50;;;;;;5011955;28;20053;-61
2021/11/15 04:48:02;;;;;;;37.83;26.58;;;8.80;99.50;;;;;;5011963;28;20034;-61
2021/11/15 04:50:27;;;;;;;40.58;26.75;;;8.80;99.50;;;;;;5011816;28;20021;-61
2021/11/15 04:52:53;;;;;;;39.30;26.73;;;8.70;99.40;;;;;;5011586;28;20026;-61
2021/11/15 04:55:21;;;;;;;39.70;27.05;;;8.80;99.40;;;;;;5010023;28;20054;-61
2021/11/15 04:57:47;;;;;;;38.63;26.45;;;8.70;99.40;;;;;;5011994;28;20037;-61
2021/11/15 05:00:20;;;;;;;39.45;26.38;;;8.70;99.30;;;;;;4993991;28;20022;-61
2021/11/15 05:02:47;;;;;;;39.05;26.35;;;8.70;99.30;;;;;;5009246;28;20463;-61
2021/11/15 05:05:15;;;;;;;40.75;26.42;;;8.70;99.60;;;;;;5011552;28;20034;-61
2021/11/15 05:07:41;;;;;;;39.53;26.73;;;8.70;99.40;;;;;;5011414;28;20030;-61
2021/11/15 05:10:07;;;;;;;37.08;24.50;;;8.60;99.30;;;;;;4993919;28;20030;-61
2021/11/15 05:12:35;;;;;;;35.75;24.90;;;8.60;99.30;;;;;;4998992;28;20423;-61
2021/11/15 05:15:11;;;;;;;38.92;25.88;;;8.60;99.40;;;;;;4993910;28;20478;-61
2021/11/15 05:17:37;;;;;;;35.90;24.27;;;8.70;99.40;;;;;;4992887;28;20034;-61
2021/11/15 05:20:06;;;;;;;35.08;24.45;;;8.60;99.40;;;;;;5011649;28;20029;-61
2021/11/15 05:22:31;;;;;;;42.63;29.23;;;8.60;99.40;;;;;;4993440;28;20025;-61
2021/11/15 05:24:57;;;;;;;39.30;27.13;;;8.60;99.40;;;;;;4993680;28;20091;-61
2021/11/15 05:27:22;;;;;;;39.65;26.55;;;8.60;99.40;;;;;;5011187;28;20068;-61
2021/11/15 05:29:48;;;;;;;39.20;26.50;;;8.60;99.40;;;;;;4993715;28;20034;-61
2021/11/15 05:32:14;;;;;;;40.05;27.70;;;8.60;99.40;;;;;;5004686;28;20497;-61
2021/11/15 05:34:39;;;;;;;35.45;25.70;;;8.60;99.40;;;;;;5010567;28;20121;-61
2021/11/15 05:37:06;;;;;;;41.53;28.33;;;8.60;99.40;;;;;;5011404;28;20032;-61
2021/11/15 05:39:32;;;;;;;37.42;25.52;;;8.50;99.40;;;;;;5011041;28;20029;-61
2021/11/15 05:41:58;;;;;;;36.92;24.92;;;8.50;99.40;;;;;;5010931;28;20038;-61
2021/11/15 05:44:25;;;;;;;40.83;28.20;;;8.50;99.40;;;;;;5010941;28;20039;-61
2021/11/15 05:46:51;;;;;;;38.95;26.48;;;8.50;99.30;;;;;;5010780;28;20022;-61
2021/11/15 05:49:17;;;;;;;39.83;26.92;;;8.50;99.30;;;;;;5011131;28;20026;-61
2021/11/15 05:51:42;;;;;;;35.22;24.27;;;8.60;99.30;;;;;;5010987;28;20026;-61
2021/11/15 05:54:08;;;;;;;36.47;25.08;;;8.50;99.30;;;;;;5004430;28;20033;-61
2021/11/15 05:56:33;;;;;;;36.58;24.98;;;8.50;99.30;;;;;;5010218;28;20040;-61
2021/11/15 05:58:59;;;;;;;36.20;24.83;;;8.50;99.30;;;;;;5010799;28;20068;-61
2021/11/15 06:01:25;;;;;;;35.90;25.45;;;8.50;99.30;;;;;;5010044;28;20053;-61
2021/11/15 06:03:50;;;;;;;35.38;24.27;;;8.50;99.40;;;;;;5010311;28;20087;-61
2021/11/15 06:06:57;;;;;;;;;;;;;;;;;;;;;
2021/11/15 06:09:55;;;;;;;36.78;24.33;;;8.60;99.40;;;;;;5010075;28;20052;-61
2021/11/15 06:12:21;;;;;;;35.80;24.38;;;8.50;99.30;;;;;;5010546;28;20025;-61
2021/11/15 06:14:46;;;;;;;37.72;26.05;;;8.50;99.40;;;;;;5010553;28;20113;-61
2021/11/15 06:17:12;;;;;;;40.15;25.75;;;8.50;99.40;;;;;;5010456;28;20034;-61
2021/11/15 06:19:37;;;;;;;37.35;25.70;;;8.50;99.40;;;;;;5010697;28;20057;-61
2021/11/15 06:22:03;;;;;;;32.88;21.77;;;8.40;99.40;;;;;;4993052;28;20045;-61
2021/11/15 06:24:29;;;;;;;37.40;25.35;;;8.50;99.50;;;;;;5010374;28;20121;-61
2021/11/15 06:27:21;;;;;;;32.58;22.92;;;8.50;99.50;;;;;;5010446;28;20062;-61
2021/11/15 06:29:47;;;;;;;35.90;25.90;;;8.50;99.50;;;;;;5003916;28;20121;-61
2021/11/15 06:32:13;;;;;;;37.70;25.70;;;8.50;99.50;;;;;;4994463;28;20120;-61
2021/11/15 06:34:39;;;;;;;35.70;24.40;;;8.40;99.50;;;;;;5011751;28;20029;-61
2021/11/15 06:37:13;;;;;;;35.80;25.35;;;8.40;99.50;;;;;;5011717;28;20026;-61
2021/11/15 06:39:39;;;;;;;32.83;23.08;;;8.40;99.50;;;;;;4985170;28;20030;-61
2021/11/15 06:42:04;;;;;;;34.22;23.73;;;8.40;99.60;;;;;;4974294;28;20548;-61
2021/11/15 06:44:31;;;;;;;27.83;20.63;;;8.50;99.60;;;;;;4974955;28;20507;-61
2021/11/15 06:46:58;;;;;;;35.42;24.17;;;8.50;99.60;;;;;;4974986;28;20034;-61
2021/11/15 06:49:24;;;;;;;36.08;25.05;;;8.50;99.60;;;;;;4998759;28;20106;-61
2021/11/15 06:51:51;;;;;;;37.05;25.98;;;8.50;99.60;;;;;;4994252;28;20022;-61
2021/11/15 06:54:17;;;;;;;34.28;24.40;;;8.50;99.60;;;;;;5012008;28;20092;-61
2021/11/15 06:56:58;;;;;;;30.08;21.38;;;8.50;99.60;;;;;;5011656;28;20417;-61
2021/11/15 06:59:23;;;;;;;38.15;25.73;;;8.50;99.70;;;;;;4979561;28;20025;-61
2021/11/15 07:01:49;;;;;;;36.00;25.40;;;8.40;99.60;;;;;;5011756;28;20092;-61
2021/11/15 07:04:15;;;;;;;37.55;25.08;;;8.40;99.70;;;;;;5011341;28;20026;-61
2021/11/15 07:06:42;;;;;;;36.53;25.13;;;8.40;99.70;;;;;;5011906;28;20117;-61
2021/11/15 07:09:08;;;;;;;35.08;23.75;;;8.40;99.70;;;;;;5011547;28;20038;-61
2021/11/15 07:11:35;;;;;;;34.42;23.58;;;8.40;99.80;;;;;;5012634;28;20026;-61
2021/11/15 07:14:02;;;;;;;33.22;23.45;;;8.40;99.80;;;;;;5015363;28;20456;-61
2021/11/15 07:16:28;;;;;;;35.05;24.13;;;8.40;99.80;;;;;;5015157;28;20462;-61
2021/11/15 07:18:54;;;;;;;34.55;22.58;;;8.40;99.80;;;;;;5013170;28;20068;-61
2021/11/15 07:21:20;;;;;;;33.78;21.63;;;8.40;99.80;;;;;;5012651;28;20133;-61
2021/11/15 07:23:46;;;;;;;32.30;22.65;;;8.40;99.80;;;;;;5013482;28;20030;-61
2021/11/15 07:26:12;;;;;;;34.13;21.77;;;8.40;99.90;;;;;;5014639;28;20458;-61
2021/11/15 07:28:38;;;;;;;29.40;19.77;;;8.40;99.90;;;;;;5014077;28;20058;-61
2021/11/15 07:31:04;;;;;;;27.80;18.23;;;8.40;99.90;;;;;;5015102;28;20053;-61
2021/11/15 07:33:29;;;;;;;32.17;21.50;;;8.40;99.90;;;;;;4997590;28;20030;-61
2021/11/15 07:35:55;;;;;;;29.88;20.45;;;8.40;99.90;;;;;;4997606;28;20037;-61
2021/11/15 07:38:21;;;;;;;35.33;22.83;;;8.50;99.90;;;;;;5015127;28;20021;-61
2021/11/15 07:40:47;;;;;;;34.60;22.02;;;8.40;99.90;;;;;;5012997;28;20101;-61
2021/11/15 07:43:13;;;;;;;35.30;22.77;;;8.50;99.90;;;;;;5012897;28;20026;-61
2021/11/15 07:45:39;;;;;;;33.72;22.73;;;8.40;99.90;;;;;;5014798;28;20065;-61
2021/11/15 07:48:05;;;;;;;31.23;19.95;;;8.40;99.90;;;;;;4997346;28;20068;-61
2021/11/15 07:50:31;;;;;;;26.35;17.75;;;8.40;99.90;;;;;;4997311;28;20046;-61
2021/11/15 07:52:57;;;;;;;26.23;17.42;;;8.50;99.90;;;;;;4994749;28;20029;-61
2021/11/15 07:55:22;;;;;;;35.63;22.52;;;8.50;99.90;;;;;;5011054;28;20124;-61
2021/11/15 07:57:48;;;;;;;31.58;20.42;;;8.50;99.90;;;;;;4994319;28;20029;-61
2021/11/15 08:00:17;;;;;;;28.67;20.05;;;8.50;99.90;;;;;;5013036;28;20061;-61
2021/11/15 08:03:18;;;;;;;26.13;17.50;;;8.50;99.90;;;;;;5010970;28;20026;-61
2021/11/15 08:05:44;;;;;;;27.40;17.88;;;8.50;99.90;;;;;;5011979;28;20045;-61
2021/11/15 08:08:10;;;;;;;29.70;18.50;;;8.50;99.90;;;;;;5014256;28;20026;-61
2021/11/15 08:10:35;;;;;;;29.23;18.65;;;8.40;99.90;;;;;;5014415;28;20026;-61
2021/11/15 08:13:01;;;;;;;26.40;17.65;;;8.40;99.90;;;;;;5012023;28;20049;-61
2021/11/15 08:15:29;;;;;;;28.02;18.65;;;8.40;99.90;;;;;;5014301;28;20397;-61
2021/11/15 08:17:56;;;;;;;28.52;17.05;;;8.40;99.90;;;;;;5012208;28;20045;-61
2021/11/15 08:20:27;;;;;;;26.13;15.85;;;8.40;99.90;;;;;;5014294;28;20026;-61
2021/11/15 08:22:56;;;;;;;28.10;16.85;;;8.40;99.90;;;;;;5013927;28;20030;-61
2021/11/15 08:25:30;;;;;;;27.42;17.50;;;8.40;99.90;;;;;;5013513;28;20029;-61
2021/11/15 08:27:57;;;;;;;26.20;15.98;;;8.40;99.90;;;;;;5013673;28;20029;-61
2021/11/15 08:30:24;;;;;;;26.20;17.08;;;8.40;99.90;;;;;;5013757;28;20022;-61
2021/11/15 08:32:50;;;;;;;25.90;16.48;;;8.40;99.90;;;;;;5013911;28;20071;-61
2021/11/15 08:35:19;;;;;;;23.90;14.70;;;8.40;99.90;;;;;;5013886;28;20037;-61
2021/11/15 08:38:07;;;;;;;23.52;14.75;;;8.40;99.90;;;;;;5013542;28;20034;-61
2021/11/15 08:40:32;;;;;;;26.08;16.05;;;8.40;99.90;;;;;;5012273;28;20026;-61
2021/11/15 08:42:58;;;;;;;24.95;15.07;;;8.30;99.90;;;;;;5013517;28;20034;-61
2021/11/15 08:45:24;;;;;;;22.60;12.80;;;8.40;99.90;;;;;;5013549;28;20029;-61
2021/11/15 08:47:49;;;;;;;22.33;12.88;;;8.30;99.90;;;;;;5013266;28;20050;-61
2021/11/15 08:50:15;;;;;;;23.67;13.95;;;8.30;99.90;;;;;;5011333;28;20018;-60
2021/11/15 08:52:41;;;;;;;20.10;12.52;;;8.30;99.90;;;;;;5006517;28;20459;-61
2021/11/15 08:55:06;;;;;;;17.35;11.07;;;8.30;99.90;;;;;;4973297;28;20514;-61
2021/11/15 08:57:32;;;;;;;17.83;10.27;;;8.30;99.90;;;;;;5008713;28;20399;-61
2021/11/15 08:59:58;;;;;;;18.77;12.38;;;8.30;99.90;;;;;;5012851;28;20040;-61
2021/11/15 09:02:24;;;;;;;22.25;12.85;;;8.30;99.90;;;;;;5013190;28;20037;-61
2021/11/15 09:04:50;;;;;;;19.95;12.55;;;8.30;99.90;;;;;;5013123;28;20026;-61
2021/11/15 09:07:16;;;;;;;19.40;12.20;;;8.30;99.90;;;;;;4995748;28;20026;-61
2021/11/15 09:09:41;;;;;;;20.42;11.68;;;8.30;99.90;;;;;;4995482;28;20038;-61
2021/11/15 09:12:09;;;;;;;16.23;10.15;;;8.30;99.90;;;;;;5013208;28;20026;-61
2021/11/15 09:14:36;;;;;;;16.17;9.85;;;8.30;99.90;;;;;;5012570;28;20077;-61
2021/11/15 09:17:03;;;;;;;16.40;10.18;;;8.30;99.90;;;;;;5013010;28;20108;-61
2021/11/15 09:19:28;;;;;;;15.45;9.80;;;8.30;99.90;;;;;;5012621;28;20037;-61
2021/11/15 09:21:55;;;;;;;16.67;10.30;;;8.30;99.90;;;;;;5013079;28;20033;-61
2021/11/15 09:24:21;;;;;;;15.55;9.43;;;8.30;99.90;;;;;;5002593;28;20049;-61
2021/11/15 09:26:47;;;;;;;16.23;9.77;;;8.30;99.90;;;;;;5012065;28;20398;-61
2021/11/15 09:29:14;;;;;;;12.93;8.50;;;8.40;99.90;;;;;;5012030;28;20025;-61
2021/11/15 09:31:41;;;;;;;15.45;9.27;;;8.40;99.90;;;;;;5012523;28;20137;-61
2021/11/15 09:34:07;;;;;;;14.95;8.90;;;8.40;99.90;;;;;;5012657;28;20033;-62
2021/11/15 09:36:53;;;;;;;12.27;7.65;;;8.40;99.90;;;;;;5012242;28;20026;-61
2021/11/15 09:39:19;;;;;;;12.25;8.05;;;8.40;99.90;;;;;;5012698;28;20543;-61
2021/11/15 09:41:45;;;;;;;14.77;8.52;;;8.40;99.90;;;;;;4995034;28;20136;-61
2021/11/15 09:44:12;;;;;;;13.52;8.60;;;8.40;99.90;;;;;;5012465;28;20385;-61
2021/11/15 09:46:37;;;;;;;15.70;8.77;;;8.40;99.90;;;;;;5012537;28;20080;-61
2021/11/15 09:49:10;;;;;;;14.65;9.90;;;8.40;99.90;;;;;;5012591;28;20026;-61
2021/11/15 09:51:35;;;;;;;12.82;8.60;;;8.40;99.90;;;;;;4994896;28;20022;-61
2021/11/15 09:54:03;;;;;;;13.60;8.10;;;8.40;99.90;;;;;;5012425;28;20030;-61
2021/11/15 09:56:31;;;;;;;18.52;10.80;;;8.40;99.90;;;;;;5011981;28;20018;-61
2021/11/15 09:58:57;;;;;;;16.67;10.45;;;8.40;99.90;;;;;;5012032;28;20466;-61
2021/11/15 10:01:24;;;;;;;18.02;10.38;;;8.40;99.90;;;;;;4994796;28;20536;-61
2021/11/15 10:03:50;;;;;;;18.08;11.40;;;8.40;99.90;;;;;;5024460;28;20029;-61
2021/11/15 10:06:17;;;;;;;19.45;12.18;;;8.40;99.90;;;;;;5005302;28;20021;-61
2021/11/15 10:08:50;;;;;;;18.05;11.13;;;8.40;99.90;;;;;;4993912;28;20076;-61
2021/11/15 10:11:18;;;;;;;19.55;11.80;;;8.40;99.90;;;;;;5011870;28;20049;-61
2021/11/15 10:13:43;;;;;;;19.15;12.27;;;8.30;99.90;;;;;;4984178;28;21348;-61
2021/11/15 10:16:39;;;;;;;20.13;11.98;;;8.30;99.90;;;;;;5009521;28;20020;-61
2021/11/15 10:19:07;;;;;;;20.08;11.18;;;8.30;99.90;;;;;;4995681;28;20412;-61
2021/11/15 10:22:04;;;;;;;20.23;11.77;;;8.20;99.90;;;;;;5011726;28;20467;-61
2021/11/15 10:24:36;;;;;;;17.95;11.45;;;8.30;99.90;;;;;;5003549;28;20041;-61
2021/11/15 10:27:09;;;;;;;20.55;11.70;;;8.30;99.90;;;;;;5011909;28;20022;-61
2021/11/15 10:29:39;;;;;;;21.42;12.40;;;8.30;99.90;;;;;;5011959;28;20033;-61
2021/11/15 10:32:18;;;;;;;;;;;8.30;99.90;;;;;;5012368;28;20045;-61
2021/11/15 10:34:44;;;;;;;20.88;11.27;;;8.20;99.90;;;;;;5012011;28;20047;-61
2021/11/15 10:37:22;;;;;;;23.95;14.10;;;8.20;99.90;;;;;;5012071;28;20476;-61
2021/11/15 10:40:04;;;;;;;25.60;14.23;;;8.20;99.90;;;;;;5011935;28;20180;-61
2021/11/15 10:42:39;;;;;;;23.00;13.90;;;8.20;99.90;;;;;;4993494;28;20115;-61
2021/11/15 10:45:13;;;;;;;22.95;13.82;;;8.20;99.90;;;;;;4994949;28;20037;-61
2021/11/15 10:47:44;;;;;;;23.73;12.85;;;8.20;99.90;;;;;;5013635;28;20022;-61
2021/11/15 10:50:19;;;;;;;23.33;13.93;;;8.20;99.90;;;;;;5015798;28;20076;-61
2021/11/15 10:53:11;;;;;;;21.70;12.15;;;8.20;99.90;;;;;;5015335;28;20390;-61
2021/11/15 10:55:40;;;;;;;22.10;12.85;;;8.20;99.90;;;;;;5015806;28;20478;-61
2021/11/15 10:58:14;;;;;;;25.17;13.85;;;8.20;99.90;;;;;;5015602;28;20500;-61
2021/11/15 11:00:41;;;;;;;21.02;11.60;;;8.20;99.90;;;;;;5015407;28;20061;-61
2021/11/15 11:03:19;;;;;;;21.40;12.90;;;8.20;99.90;;;;;;5015275;28;20159;-61
2021/11/15 11:05:47;;;;;;;24.33;13.20;;;8.20;99.90;;;;;;5015300;28;20125;-62
2021/11/15 11:08:17;;;;;;;23.30;12.50;;;8.20;99.90;;;;;;5015197;28;20022;-61
2021/11/15 11:11:00;;;;;;;23.83;13.68;;;8.20;99.90;;;;;;5012306;28;20109;-61
2021/11/15 11:13:38;;;;;;;28.38;14.98;;;8.20;99.90;;;;;;5015260;28;20415;-61
2021/11/15 11:16:18;;;;;;;21.52;12.48;;;8.20;99.90;;;;;;5015067;28;20076;-61
2021/11/15 11:18:46;;;;;;;20.45;12.13;;;8.20;99.90;;;;;;5007145;28;20038;-61
2021/11/15 11:26:35;;;;;;;24.85;14.50;;;8.30;99.90;;;;;;5015290;28;20096;-60
2021/11/15 11:29:04;;;;;;;25.02;14.82;;;8.30;99.90;;;;;;5015231;28;20026;-61
2021/11/15 11:31:32;;;;;;;21.80;13.35;;;8.30;99.90;;;;;;5008477;28;20026;-61
2021/11/15 11:33:59;;;;;;;22.92;12.88;;;8.20;99.90;;;;;;4997138;28;20030;-61
2021/11/15 11:36:25;;;;;;;24.58;13.45;;;8.30;99.90;;;;;;4997341;28;20060;-61
2021/11/15 11:39:04;;;;;;;24.80;13.25;;;8.20;99.90;;;;;;5014824;28;20025;-61
2021/11/15 11:41:30;;;;;;;24.70;13.47;;;8.30;99.90;;;;;;5014911;28;20018;-61
2021/11/15 11:43:55;;;;;;;22.77;12.70;;;8.20;99.90;;;;;;4978816;28;20109;-61
2021/11/15 11:46:25;;;;;;;22.45;13.10;;;8.20;99.90;;;;;;5014871;28;20057;-61
2021/11/15 11:48:52;;;;;;;25.13;13.20;;;8.20;99.90;;;;;;5014228;28;20022;-61
2021/11/15 11:51:20;;;;;;;21.40;12.13;;;8.10;99.90;;;;;;5014316;28;20064;-61
2021/11/15 11:53:46;;;;;;;22.83;12.40;;;8.20;99.90;;;;;;5014603;28;20389;-61
2021/11/15 11:56:21;;;;;;;23.50;14.63;;;8.20;99.90;;;;;;5014864;28;20478;-61
2021/11/15 11:58:50;;;;;;;26.67;12.82;;;8.20;99.90;;;;;;5013318;28;20026;-61
2021/11/15 12:01:20;;;;;;;21.10;13.23;;;8.10;99.90;;;;;;5014167;28;20470;-61
2021/11/15 12:04:16;;;;;;;24.38;12.30;;;8.10;99.90;;;;;;5013780;28;20037;-61
2021/11/15 12:06:43;;;;;;;22.30;12.90;;;8.10;99.90;;;;;;5013322;28;20072;-61
2021/11/15 12:09:09;;;;;;;23.63;13.07;;;8.10;99.90;;;;;;4994814;28;20038;-61
2021/11/15 12:11:41;;;;;;;21.45;12.50;;;8.10;99.90;;;;;;4995030;28;20029;-61
2021/11/15 12:14:10;;;;;;;21.63;12.88;;;8.10;99.90;;;;;;5011901;28;20030;-61
2021/11/15 12:16:59;;;;;;;18.73;11.25;;;8.10;99.90;;;;;;4993903;28;20041;-61
2021/11/15 12:19:31;;;;;;;18.17;9.85;;;8.10;99.90;;;;;;5010977;28;20036;-61
2021/11/15 12:22:24;;;;;;;19.15;10.77;;;8.10;99.90;;;;;;5011477;28;20058;-61
2021/11/15 12:25:05;;;;;;;20.67;10.52;;;8.10;99.90;;;;;;5009928;28;20048;-62
2021/11/15 12:27:53;;;;;;;17.70;10.88;;;8.20;99.90;;;;;;5013381;28;20025;-61
2021/11/15 12:30:34;;;;;;;17.92;11.75;;;8.20;99.90;;;;;;5010694;28;20079;-61
2021/11/15 12:33:20;;;;;;;17.77;11.32;;;8.10;99.90;;;;;;5010300;28;20101;-61
2021/11/15 12:36:00;;;;;;;18.02;10.32;;;8.20;99.90;;;;;;5011482;28;20442;-62
2021/11/15 12:38:30;;;;;;;19.83;12.48;;;8.10;99.90;;;;;;5011213;28;20100;-61
2021/11/15 12:40:55;;;;;;;;;;;8.10;99.90;;;;;;4994973;28;20474;-61
2021/11/15 12:43:21;;;;;;;21.40;11.88;;;8.10;99.90;;;;;;5011965;28;19909;-61
2021/11/15 12:46:18;;;;;;;19.92;10.98;;;8.00;99.90;;;;;;5012503;28;20421;-61
2021/11/15 12:48:46;;;;;;;21.70;12.20;;;8.00;99.90;;;;;;5013450;28;20030;-61
2021/11/15 12:51:37;;;;;;;16.63;10.60;;;8.00;99.90;;;;;;5013686;28;20030;-61
2021/11/15 12:57:47;;;;;;;18.40;11.55;;;8.10;99.90;;;;;;4972145;28;20034;-61